Time;durP1;ratioP1;P1;durP2;ratioP2;P2;SDS_P1;SDS_P2;PMS_P1;PMS_P2;Temp;Humidity;BMP_temperature;BMP_pressure;BME280_temperature;BME280_humidity;BME280_pressure;Samples;Min_cycle;Max_cycle;Signal;HPM_P1;HPM_P2
2022/01/09 00:01:46;;;;;;;20.45;19.35;;;;;;;;;;5015878;28;20216;-89
2022/01/09 00:04:14;;;;;;;20.13;19.00;;;;;;;;;;4998218;28;20716;-89
2022/01/09 00:06:41;;;;;;;18.70;17.70;;;;;;;;;;5015693;28;20195;-89
2022/01/09 00:09:09;;;;;;;18.73;17.80;;;;;;;;;;5015644;28;20273;-89
2022/01/09 00:11:36;;;;;;;19.75;18.75;;;;;;;;;;5015474;28;20194;-88
2022/01/09 00:14:03;;;;;;;18.98;17.98;;;;;;;;;;5015843;28;20232;-89
2022/01/09 00:16:31;;;;;;;18.67;17.67;;;;;;;;;;5015261;28;20207;-89
2022/01/09 00:19:00;;;;;;;19.10;18.08;;;;;;;;;;5015450;28;20197;-89
2022/01/09 00:21:27;;;;;;;19.55;18.45;;;;;;;;;;5015649;28;20222;-89
2022/01/09 00:23:56;;;;;;;19.15;18.25;;;;;;;;;;5015291;28;20577;-89
2022/01/09 00:26:23;;;;;;;19.00;18.00;;;;;;;;;;4998483;28;20252;-88
2022/01/09 00:28:51;;;;;;;18.92;17.92;;;;;;;;;;5015116;28;20644;-89
2022/01/09 00:31:18;;;;;;;19.00;18.05;;;;;;;;;;5015245;28;20703;-89
2022/01/09 00:33:45;;;;;;;17.80;17.00;;;;;;;;;;5015048;28;20194;-89
2022/01/09 00:36:14;;;;;;;19.27;18.38;;;;;;;;;;5015386;28;20278;-89
2022/01/09 00:38:41;;;;;;;19.58;18.58;;;;;;;;;;5015822;28;20191;-90
2022/01/09 00:41:09;;;;;;;19.35;18.35;;;;;;;;;;5014660;28;20298;-89
2022/01/09 00:43:36;;;;;;;18.42;17.52;;;;;;;;;;5015341;28;20202;-89
2022/01/09 00:46:03;;;;;;;18.95;18.05;;;;;;;;;;5015188;28;20191;-89
2022/01/09 00:48:31;;;;;;;18.73;17.83;;;;;;;;;;5015097;28;20195;-90
2022/01/09 00:50:58;;;;;;;18.63;17.73;;;;;;;;;;5015067;28;20258;-90
2022/01/09 00:53:27;;;;;;;19.33;18.33;;;;;;;;;;5015076;28;20197;-89
2022/01/09 00:55:55;;;;;;;19.13;18.17;;;;;;;;;;4997480;28;20206;-89
2022/01/09 00:58:22;;;;;;;18.10;17.20;;;;;;;;;;5014843;28;20198;-90
2022/01/09 01:00:49;;;;;;;18.80;17.90;;;;;;;;;;5014983;28;20258;-89
2022/01/09 01:03:17;;;;;;;18.95;18.05;;;;;;;;;;4997499;28;20203;-89
2022/01/09 01:05:44;;;;;;;18.25;17.40;;;;;;;;;;5014896;28;20192;-89
2022/01/09 01:08:12;;;;;;;18.55;17.65;;;;;;;;;;5014540;28;20223;-90
2022/01/09 01:10:43;;;;;;;18.33;17.42;;;;;;;;;;5014051;28;20189;-90
2022/01/09 01:13:10;;;;;;;18.90;18.00;;;;;;;;;;5014809;28;20198;-90
2022/01/09 01:15:38;;;;;;;19.45;18.45;;;;;;;;;;5014621;28;20224;-89
2022/01/09 01:18:05;;;;;;;18.70;17.70;;;;;;;;;;5014446;28;20202;-90
2022/01/09 01:20:33;;;;;;;19.70;18.70;;;;;;;;;;5014459;28;20225;-90
2022/01/09 01:23:00;;;;;;;18.85;17.95;;;;;;;;;;5014106;28;20242;-90
2022/01/09 01:25:28;;;;;;;19.02;17.98;;;;;;;;;;5014644;28;20190;-90
2022/01/09 01:27:57;;;;;;;19.33;18.42;;;;;;;;;;5014229;28;20203;-90
2022/01/09 01:30:24;;;;;;;19.75;18.85;;;;;;;;;;5014552;28;20248;-89
2022/01/09 01:32:51;;;;;;;18.50;17.60;;;;;;;;;;5014295;28;20680;-90
2022/01/09 01:35:19;;;;;;;18.40;17.50;;;;;;;;;;5014369;28;20187;-90
2022/01/09 01:37:46;;;;;;;18.48;17.58;;;;;;;;;;5014302;28;20190;-89
2022/01/09 01:40:15;;;;;;;18.27;17.45;;;;;;;;;;5013957;28;20232;-89
2022/01/09 01:42:43;;;;;;;18.60;17.70;;;;;;;;;;4997191;28;20198;-90
2022/01/09 01:45:12;;;;;;;18.70;17.80;;;;;;;;;;5014027;28;20203;-90
2022/01/09 01:47:40;;;;;;;18.10;17.30;;;;;;;;;;5014036;28;20237;-90
2022/01/09 01:50:09;;;;;;;18.13;17.23;;;;;;;;;;4981228;28;20200;-89
2022/01/09 01:52:40;;;;;;;18.23;17.42;;;;;;;;;;5013938;28;20205;-90
2022/01/09 01:55:09;;;;;;;17.98;16.98;;;;;;;;;;5014078;28;20701;-90
2022/01/09 01:57:36;;;;;;;18.83;17.92;;;;;;;;;;4997385;28;20192;-90
2022/01/09 02:00:04;;;;;;;18.25;17.45;;;;;;;;;;5014095;28;20206;-90
2022/01/09 02:02:33;;;;;;;17.60;16.80;;;;;;;;;;5014229;28;20670;-90
2022/01/09 02:05:01;;;;;;;18.20;17.30;;;;;;;;;;5014481;28;20190;-90
2022/01/09 02:07:29;;;;;;;18.60;17.70;;;;;;;;;;5013936;28;20283;-90
2022/01/09 02:09:56;;;;;;;17.90;17.10;;;;;;;;;;5013934;28;20242;-90
2022/01/09 02:12:24;;;;;;;18.10;17.30;;;;;;;;;;5014421;28;20195;-91
2022/01/09 02:14:51;;;;;;;18.27;17.38;;;;;;;;;;5014556;28;20278;-91
2022/01/09 02:17:19;;;;;;;18.25;17.38;;;;;;;;;;5014383;28;20312;-90
2022/01/09 02:19:55;;;;;;;17.92;17.13;;;;;;;;;;5014054;28;20203;-91
2022/01/09 02:22:24;;;;;;;18.20;17.40;;;;;;;;;;5016602;28;20245;-90
2022/01/09 02:24:52;;;;;;;18.23;17.33;;;;;;;;;;5017571;28;20200;-91
2022/01/09 02:27:19;;;;;;;18.13;17.23;;;;;;;;;;5017774;28;20202;-90
2022/01/09 02:29:47;;;;;;;18.20;17.30;;;;;;;;;;5017802;28;20652;-90
2022/01/09 02:32:16;;;;;;;17.50;16.70;;;;;;;;;;5017743;28;20224;-92
2022/01/09 02:34:46;;;;;;;18.77;17.77;;;;;;;;;;5017573;28;20644;-91
2022/01/09 02:37:14;;;;;;;18.10;17.30;;;;;;;;;;5017935;28;20191;-91
2022/01/09 02:39:42;;;;;;;18.33;17.50;;;;;;;;;;5017462;28;20242;-91
2022/01/09 02:42:18;;;;;;;17.80;17.00;;;;;;;;;;5016994;28;20230;-91
2022/01/09 02:44:46;;;;;;;17.95;17.15;;;;;;;;;;5017416;28;20645;-91
2022/01/09 02:47:13;;;;;;;17.58;16.67;;;;;;;;;;5017160;28;20211;-91
2022/01/09 02:49:45;;;;;;;18.13;17.30;;;;;;;;;;5016917;28;20662;-91
2022/01/09 02:52:26;;;;;;;18.23;17.33;;;;;;;;;;5017366;28;20223;-90
2022/01/09 02:55:12;;;;;;;17.83;17.00;;;;;;;;;;5017295;28;20202;-91
2022/01/09 02:57:40;;;;;;;18.35;17.45;;;;;;;;;;5017266;28;20286;-91
2022/01/09 03:00:08;;;;;;;18.10;17.20;;;;;;;;;;4999773;28;20204;-91
2022/01/09 03:02:35;;;;;;;18.55;17.65;;;;;;;;;;5017023;28;20219;-91
2022/01/09 03:05:03;;;;;;;17.80;17.00;;;;;;;;;;5017294;28;20195;-90
2022/01/09 03:07:30;;;;;;;17.80;17.00;;;;;;;;;;4999310;28;20221;-91
2022/01/09 03:09:59;;;;;;;17.40;16.60;;;;;;;;;;5017140;28;20194;-89
2022/01/09 03:12:26;;;;;;;17.38;16.58;;;;;;;;;;5016803;28;20539;-91
2022/01/09 03:14:54;;;;;;;17.90;17.00;;;;;;;;;;5016947;28;20201;-90
2022/01/09 03:17:21;;;;;;;17.65;16.85;;;;;;;;;;5017015;28;20198;-90
2022/01/09 03:19:48;;;;;;;17.20;16.40;;;;;;;;;;5016430;28;20207;-90
2022/01/09 03:22:16;;;;;;;17.58;16.77;;;;;;;;;;5016418;28;20610;-91
2022/01/09 03:24:43;;;;;;;17.40;16.60;;;;;;;;;;5016588;28;20289;-90
2022/01/09 03:27:12;;;;;;;17.60;16.80;;;;;;;;;;5016775;28;20191;-91
2022/01/09 03:29:40;;;;;;;17.92;17.08;;;;;;;;;;5016414;28;20195;-91
2022/01/09 03:32:08;;;;;;;18.38;17.48;;;;;;;;;;4998752;28;20252;-91
2022/01/09 03:34:35;;;;;;;18.10;17.30;;;;;;;;;;5016320;28;20253;-91
2022/01/09 03:37:03;;;;;;;17.83;17.02;;;;;;;;;;5016312;28;20201;-90
2022/01/09 03:39:30;;;;;;;17.85;16.95;;;;;;;;;;4998834;28;20199;-90
2022/01/09 03:41:59;;;;;;;18.10;17.30;;;;;;;;;;5015684;28;20755;-91
2022/01/09 03:44:28;;;;;;;17.88;17.08;;;;;;;;;;5016121;28;20205;-91
2022/01/09 03:46:55;;;;;;;18.00;17.10;;;;;;;;;;4998861;28;20206;-92
2022/01/09 03:49:23;;;;;;;17.83;16.90;;;;;;;;;;5016318;28;20188;-91
2022/01/09 03:51:52;;;;;;;18.80;17.90;;;;;;;;;;5016554;28;20199;-91
2022/01/09 03:54:21;;;;;;;18.63;17.73;;;;;;;;;;4998989;28;20262;-90
2022/01/09 03:56:48;;;;;;;17.95;17.15;;;;;;;;;;4998667;28;20245;-90
2022/01/09 03:59:15;;;;;;;17.85;16.95;;;;;;;;;;5016168;28;20195;-91
2022/01/09 04:01:44;;;;;;;17.60;16.80;;;;;;;;;;5016142;28;20222;-92
2022/01/09 04:04:12;;;;;;;18.73;17.83;;;;;;;;;;5015666;28;20661;-91
2022/01/09 04:06:45;;;;;;;18.15;17.35;;;;;;;;;;5015895;28;20249;-91
2022/01/09 04:09:20;;;;;;;18.15;17.35;;;;;;;;;;5015847;28;20206;-91
2022/01/09 04:11:47;;;;;;;19.25;18.35;;;;;;;;;;5015837;28;20233;-90
2022/01/09 04:14:15;;;;;;;18.00;17.20;;;;;;;;;;5016100;28;20226;-91
2022/01/09 04:16:43;;;;;;;18.75;17.85;;;;;;;;;;5015783;28;20553;-91
2022/01/09 04:19:13;;;;;;;18.75;17.85;;;;;;;;;;5015714;28;20201;-90
2022/01/09 04:21:42;;;;;;;18.80;17.90;;;;;;;;;;5015433;28;20220;-91
2022/01/09 04:24:09;;;;;;;19.35;18.45;;;;;;;;;;5015143;28;20280;-92
2022/01/09 04:26:37;;;;;;;17.70;16.90;;;;;;;;;;5015662;28;20189;-91
2022/01/09 04:29:05;;;;;;;18.88;17.88;;;;;;;;;;5015807;28;20194;-91
2022/01/09 04:31:32;;;;;;;17.90;17.00;;;;;;;;;;5015387;28;20211;-91
2022/01/09 04:34:00;;;;;;;18.92;18.10;;;;;;;;;;5015558;28;20246;-91
2022/01/09 04:36:28;;;;;;;17.70;16.90;;;;;;;;;;5015554;28;20537;-91
2022/01/09 04:38:56;;;;;;;17.75;16.95;;;;;;;;;;5015162;28;20206;-92
2022/01/09 04:41:23;;;;;;;18.10;17.30;;;;;;;;;;5015455;28;20217;-92
2022/01/09 04:43:51;;;;;;;18.13;17.33;;;;;;;;;;5015093;28;20560;-91
2022/01/09 04:46:25;;;;;;;18.27;17.48;;;;;;;;;;5014968;28;20277;-91
2022/01/09 04:48:54;;;;;;;18.70;17.80;;;;;;;;;;5015332;28;20606;-91
2022/01/09 04:51:22;;;;;;;17.92;17.13;;;;;;;;;;5015231;28;20210;-91
2022/01/09 04:53:51;;;;;;;17.88;17.08;;;;;;;;;;5015239;28;20216;-91
2022/01/09 04:56:18;;;;;;;18.60;17.70;;;;;;;;;;4997449;28;20615;-91
2022/01/09 04:58:45;;;;;;;17.50;16.70;;;;;;;;;;5015169;28;20193;-91
2022/01/09 05:01:13;;;;;;;18.10;17.30;;;;;;;;;;5014891;28;20198;-91
2022/01/09 05:03:40;;;;;;;17.85;17.05;;;;;;;;;;5014969;28;20221;-92
2022/01/09 05:06:07;;;;;;;18.08;17.27;;;;;;;;;;5014678;28;20670;-92
2022/01/09 05:08:35;;;;;;;17.70;16.90;;;;;;;;;;5014683;28;20227;-91
2022/01/09 05:11:03;;;;;;;18.27;17.40;;;;;;;;;;5014739;28;20544;-92
2022/01/09 05:13:31;;;;;;;18.52;17.63;;;;;;;;;;5014351;28;20207;-91
2022/01/09 05:16:00;;;;;;;18.85;17.95;;;;;;;;;;5014470;28;20190;-92
2022/01/09 05:18:27;;;;;;;18.33;17.45;;;;;;;;;;5013888;28;20216;-91
2022/01/09 05:20:54;;;;;;;18.63;17.73;;;;;;;;;;5014186;28;20202;-92
2022/01/09 05:23:22;;;;;;;17.95;17.15;;;;;;;;;;5014032;28;20337;-92
2022/01/09 05:25:49;;;;;;;18.50;17.60;;;;;;;;;;5014368;28;20642;-91
2022/01/09 05:28:18;;;;;;;18.85;17.85;;;;;;;;;;5014645;28;20256;-91
2022/01/09 05:30:45;;;;;;;18.50;17.60;;;;;;;;;;5014604;28;20229;-91
2022/01/09 05:33:12;;;;;;;19.25;18.35;;;;;;;;;;5014603;28;20193;-91
2022/01/09 05:35:40;;;;;;;18.98;18.08;;;;;;;;;;5014602;28;20525;-91
2022/01/09 05:38:07;;;;;;;19.92;18.92;;;;;;;;;;5014596;28;20207;-91
2022/01/09 05:40:34;;;;;;;19.40;18.40;;;;;;;;;;4996833;28;20264;-91
2022/01/09 05:43:02;;;;;;;20.63;19.42;;;;;;;;;;4996790;28;20253;-91
2022/01/09 05:45:31;;;;;;;19.98;18.88;;;;;;;;;;5014350;28;20642;-91
2022/01/09 05:47:59;;;;;;;21.50;20.40;;;;;;;;;;5014498;28;20253;-91
2022/01/09 05:50:27;;;;;;;20.55;19.45;;;;;;;;;;5014236;28;20206;-91
2022/01/09 05:52:54;;;;;;;20.67;19.58;;;;;;;;;;5014479;28;20201;-91
2022/01/09 05:55:21;;;;;;;21.15;20.05;;;;;;;;;;5014160;28;20205;-92
2022/01/09 05:57:50;;;;;;;21.30;20.10;;;;;;;;;;5018429;28;20205;-92
2022/01/09 06:00:17;;;;;;;22.65;21.40;;;;;;;;;;5018472;28;20186;-91
2022/01/09 06:02:46;;;;;;;23.05;21.23;;;;;;;;;;5017924;28;20843;-92
2022/01/09 06:05:14;;;;;;;23.60;22.10;;;;;;;;;;5018292;28;20624;-92
2022/01/09 06:07:41;;;;;;;26.55;24.67;;;;;;;;;;5018207;28;20300;-91
2022/01/09 06:10:09;;;;;;;27.65;25.85;;;;;;;;;;5018060;28;20209;-91
2022/01/09 06:12:37;;;;;;;26.77;25.15;;;;;;;;;;5018021;28;20230;-92
2022/01/09 06:15:05;;;;;;;25.02;23.52;;;;;;;;;;5018185;28;20194;-91
2022/01/09 06:17:35;;;;;;;28.40;26.20;;;;;;;;;;5018030;28;20199;-89
2022/01/09 06:20:05;;;;;;;27.05;25.15;;;;;;;;;;5017844;28;20198;-90
2022/01/09 06:22:33;;;;;;;26.90;25.10;;;;;;;;;;5017248;28;20288;-90
2022/01/09 06:25:00;;;;;;;28.13;25.98;;;;;;;;;;5017715;28;20256;-92
2022/01/09 06:27:27;;;;;;;27.25;25.45;;;;;;;;;;5017541;28;20659;-91
2022/01/09 06:29:55;;;;;;;27.02;25.17;;;;;;;;;;5017462;28;20528;-91
2022/01/09 06:32:22;;;;;;;29.52;27.33;;;;;;;;;;5000481;28;20207;-91
2022/01/09 06:34:49;;;;;;;29.27;27.00;;;;;;;;;;5017809;28;20194;-91
2022/01/09 06:37:18;;;;;;;35.15;31.70;;;;;;;;;;5017403;28;20215;-91
2022/01/09 06:39:45;;;;;;;33.00;29.63;;;;;;;;;;5017596;28;20632;-91
2022/01/09 06:42:13;;;;;;;30.00;27.65;;;;;;;;;;5017224;28;20684;-91
2022/01/09 06:44:40;;;;;;;32.92;29.85;;;;;;;;;;5000062;28;20252;-91
2022/01/09 06:47:08;;;;;;;34.67;31.70;;;;;;;;;;5017340;28;20672;-91
2022/01/09 06:49:36;;;;;;;35.33;32.63;;;;;;;;;;5017255;28;20193;-91
2022/01/09 06:52:03;;;;;;;34.95;32.45;;;;;;;;;;4999616;28;20203;-90
2022/01/09 06:54:32;;;;;;;31.02;29.02;;;;;;;;;;5017686;28;20203;-91
2022/01/09 06:57:00;;;;;;;33.70;31.20;;;;;;;;;;4999892;28;20251;-91
2022/01/09 06:59:27;;;;;;;34.90;32.50;;;;;;;;;;5017484;28;20234;-91
2022/01/09 07:01:54;;;;;;;35.05;32.20;;;;;;;;;;5017640;28;20191;-91
2022/01/09 07:04:22;;;;;;;34.83;32.22;;;;;;;;;;5016707;28;20257;-87
2022/01/09 07:06:49;;;;;;;34.92;32.38;;;;;;;;;;5016551;28;20195;-87
2022/01/09 07:09:16;;;;;;;30.50;28.58;;;;;;;;;;5016055;28;20192;-86
2022/01/09 07:11:45;;;;;;;35.72;32.60;;;;;;;;;;5016514;28;20644;-87
2022/01/09 07:14:14;;;;;;;34.65;32.15;;;;;;;;;;5016995;28;20249;-87
2022/01/09 07:16:41;;;;;;;33.97;31.45;;;;;;;;;;4999566;28;20206;-87
2022/01/09 07:19:09;;;;;;;36.00;33.00;;;;;;;;;;5016793;28;20195;-87
2022/01/09 07:21:36;;;;;;;33.63;31.00;;;;;;;;;;5016792;28;20213;-87
2022/01/09 07:24:04;;;;;;;33.28;30.63;;;;;;;;;;5016175;28;20596;-87
2022/01/09 07:26:31;;;;;;;35.83;32.92;;;;;;;;;;5016294;28;20197;-86
2022/01/09 07:29:00;;;;;;;35.67;32.67;;;;;;;;;;5016149;28;20203;-87
2022/01/09 07:31:27;;;;;;;38.00;34.65;;;;;;;;;;5016624;28;20589;-87
2022/01/09 07:33:55;;;;;;;36.42;32.55;;;;;;;;;;5016320;28;20191;-87
2022/01/09 07:36:22;;;;;;;39.28;34.00;;;;;;;;;;5016208;28;20207;-87
2022/01/09 07:38:49;;;;;;;33.92;31.08;;;;;;;;;;5016024;28;20249;-86
2022/01/09 07:41:17;;;;;;;35.50;31.70;;;;;;;;;;5016227;28;20667;-86
2022/01/09 07:43:44;;;;;;;34.80;32.10;;;;;;;;;;5016145;28;20253;-87
2022/01/09 07:46:13;;;;;;;33.33;30.40;;;;;;;;;;5016208;28;20190;-87
2022/01/09 07:48:40;;;;;;;33.08;29.88;;;;;;;;;;5016148;28;20203;-87
2022/01/09 07:51:08;;;;;;;33.10;30.35;;;;;;;;;;4998470;28;20709;-86
2022/01/09 07:53:35;;;;;;;33.25;26.83;;;;;;;;;;5015794;28;20198;-86
2022/01/09 07:56:03;;;;;;;35.03;32.20;;;;;;;;;;5015473;28;20199;-85
2022/01/09 07:58:30;;;;;;;34.15;31.20;;;;;;;;;;5015729;28;20278;-86
2022/01/09 08:00:58;;;;;;;33.50;29.88;;;;;;;;;;5015680;28;20229;-87
2022/01/09 08:03:26;;;;;;;30.88;28.48;;;;;;;;;;5015760;28;20223;-86
2022/01/09 08:05:54;;;;;;;33.90;30.88;;;;;;;;;;5015672;28;20196;-86
2022/01/09 08:08:21;;;;;;;30.55;28.25;;;;;;;;;;5015388;28;20698;-86
2022/01/09 08:10:49;;;;;;;27.67;25.20;;;;;;;;;;5015404;28;20203;-86
2022/01/09 08:13:16;;;;;;;28.42;25.75;;;;;;;;;;5015450;28;20203;-84
2022/01/09 08:15:43;;;;;;;26.88;24.13;;;;;;;;;;5015182;28;20196;-85
2022/01/09 08:18:11;;;;;;;26.65;24.10;;;;;;;;;;5015083;28;20195;-83
2022/01/09 08:20:40;;;;;;;26.77;24.27;;;;;;;;;;5014049;28;20213;-83
2022/01/09 08:23:07;;;;;;;27.73;25.27;;;;;;;;;;5014111;28;20246;-82
2022/01/09 08:25:35;;;;;;;28.23;25.45;;;;;;;;;;5014499;28;20189;-83
2022/01/09 08:28:02;;;;;;;52.05;40.20;;;;;;;;;;5014242;28;20194;-83
2022/01/09 08:30:29;;;;;;;28.27;26.20;;;;;;;;;;5014511;28;20195;-83
2022/01/09 08:32:56;;;;;;;28.80;26.58;;;;;;;;;;5014382;28;20627;-83
2022/01/09 08:35:24;;;;;;;26.45;24.23;;;;;;;;;;5014134;28;20633;-84
2022/01/09 08:37:53;;;;;;;25.90;24.10;;;;;;;;;;5014300;28;20207;-84
2022/01/09 08:40:22;;;;;;;24.98;22.58;;;;;;;;;;5014116;28;20192;-83
2022/01/09 08:42:49;;;;;;;27.40;24.65;;;;;;;;;;5013888;28;20732;-84
2022/01/09 08:45:17;;;;;;;24.13;22.05;;;;;;;;;;5014483;28;20611;-83
2022/01/09 08:47:45;;;;;;;24.50;22.35;;;;;;;;;;5014793;28;20276;-88
2022/01/09 08:50:13;;;;;;;26.60;24.00;;;;;;;;;;4997109;28;20210;-88
2022/01/09 08:52:41;;;;;;;24.65;22.50;;;;;;;;;;5014529;28;20196;-87
2022/01/09 08:55:10;;;;;;;25.80;23.25;;;;;;;;;;5014806;28;20645;-88
2022/01/09 08:57:38;;;;;;;25.73;23.15;;;;;;;;;;5014837;28;20198;-88
2022/01/09 09:00:06;;;;;;;24.42;21.02;;;;;;;;;;5014772;28;20191;-88
2022/01/09 09:02:33;;;;;;;24.80;22.77;;;;;;;;;;5014652;28;20202;-89
2022/01/09 09:05:00;;;;;;;24.45;22.33;;;;;;;;;;5014777;28;20688;-89
2022/01/09 09:07:27;;;;;;;23.80;21.45;;;;;;;;;;5014741;28;20262;-89
2022/01/09 09:09:55;;;;;;;22.70;21.20;;;;;;;;;;5014705;28;20204;-89
2022/01/09 09:12:24;;;;;;;24.00;22.10;;;;;;;;;;4997149;28;20237;-89
2022/01/09 09:14:51;;;;;;;24.17;21.80;;;;;;;;;;4997389;28;20238;-89
2022/01/09 09:17:19;;;;;;;24.30;22.15;;;;;;;;;;5014718;28;20187;-88
2022/01/09 09:19:46;;;;;;;24.55;21.80;;;;;;;;;;4997683;28;20187;-89
2022/01/09 09:22:13;;;;;;;24.23;22.30;;;;;;;;;;5014795;28;20202;-88
2022/01/09 09:24:41;;;;;;;24.58;22.40;;;;;;;;;;4996958;28;20234;-89
2022/01/09 09:27:08;;;;;;;23.67;21.70;;;;;;;;;;5014598;28;20195;-89
2022/01/09 09:29:37;;;;;;;25.23;22.83;;;;;;;;;;5014633;28;20221;-89
2022/01/09 09:32:05;;;;;;;24.45;22.20;;;;;;;;;;5013839;28;20222;-89
2022/01/09 09:34:32;;;;;;;22.67;20.38;;;;;;;;;;5014686;28;20607;-89
2022/01/09 09:36:59;;;;;;;23.95;21.85;;;;;;;;;;5004828;28;20196;-94
2022/01/09 09:39:27;;;;;;;22.17;20.67;;;;;;;;;;4999745;28;20191;-90
2022/01/09 09:41:55;;;;;;;23.58;21.55;;;;;;;;;;4994851;28;20210;-92
2022/01/09 09:44:23;;;;;;;23.88;22.05;;;;;;;;;;4995533;28;20234;-93
2022/01/09 09:46:53;;;;;;;24.02;21.70;;;;;;;;;;4995187;28;20212;-93
2022/01/09 09:49:22;;;;;;;24.13;21.90;;;;;;;;;;4994833;28;20307;-92
2022/01/09 09:51:49;;;;;;;26.48;23.80;;;;;;;;;;4994708;28;20335;-92
2022/01/09 09:54:17;;;;;;;23.38;21.17;;;;;;;;;;4994291;28;20199;-92
2022/01/09 09:56:44;;;;;;;23.30;21.13;;;;;;;;;;4977883;28;20207;-87
2022/01/09 09:59:11;;;;;;;24.08;22.15;;;;;;;;;;4994500;28;20200;-89
2022/01/09 10:01:39;;;;;;;24.20;22.40;;;;;;;;;;4995291;28;20192;-92
2022/01/09 10:04:08;;;;;;;24.67;22.90;;;;;;;;;;4995285;28;20294;-96
2022/01/09 10:06:37;;;;;;;24.77;22.80;;;;;;;;;;4994558;28;20222;-93
2022/01/09 10:09:11;;;;;;;26.05;24.15;;;;;;;;;;4995026;28;20196;-94
2022/01/09 10:11:43;;;;;;;32.08;29.55;;;;;;;;;;4994795;28;20251;-96
2022/01/09 10:14:15;;;;;;;27.48;25.73;;;;;;;;;;4995036;28;20198;-96
2022/01/09 10:16:42;;;;;;;34.67;31.55;;;;;;;;;;4977564;28;20203;-87
2022/01/09 10:19:11;;;;;;;35.42;32.70;;;;;;;;;;4994349;28;20191;-88
2022/01/09 10:21:38;;;;;;;36.53;33.95;;;;;;;;;;4976884;28;20199;-88
2022/01/09 10:24:07;;;;;;;37.28;34.72;;;;;;;;;;4992888;28;20235;-95
2022/01/09 10:26:36;;;;;;;36.10;33.58;;;;;;;;;;4997659;28;20203;-95
2022/01/09 10:29:03;;;;;;;37.05;33.67;;;;;;;;;;4995910;28;20223;-96
2022/01/09 10:31:31;;;;;;;38.13;34.88;;;;;;;;;;4978239;28;20213;-86
2022/01/09 10:34:00;;;;;;;32.40;29.65;;;;;;;;;;4993688;28;20668;-86
2022/01/09 10:36:37;;;;;;;29.92;27.67;;;;;;;;;;4976832;28;20219;-85
2022/01/09 10:39:06;;;;;;;30.55;27.05;;;;;;;;;;4993873;28;20188;-86
2022/01/09 10:41:46;;;;;;;28.77;26.05;;;;;;;;;;4993907;28;20192;-85
2022/01/09 10:44:18;;;;;;;30.13;27.20;;;;;;;;;;4996705;28;20259;-85
2022/01/09 10:46:54;;;;;;;31.60;29.02;;;;;;;;;;4994450;28;20211;-86
2022/01/09 10:49:21;;;;;;;30.13;27.23;;;;;;;;;;4997483;28;20228;-85
2022/01/09 10:51:50;;;;;;;29.40;27.15;;;;;;;;;;4979804;28;20254;-86
2022/01/09 10:54:30;;;;;;;26.33;24.45;;;;;;;;;;4997022;28;20210;-86
2022/01/09 10:57:11;;;;;;;31.50;28.15;;;;;;;;;;4997360;28;20278;-86
2022/01/09 10:59:38;;;;;;;28.27;25.73;;;;;;;;;;4979663;28;20207;-85
2022/01/09 11:02:06;;;;;;;27.92;25.45;;;;;;;;;;4997031;28;20238;-85
2022/01/09 11:04:34;;;;;;;27.17;25.30;;;;;;;;;;4996790;28;20623;-86
2022/01/09 11:07:03;;;;;;;30.67;28.25;;;;;;;;;;4996699;28;20291;-85
2022/01/09 11:09:31;;;;;;;27.13;24.50;;;;;;;;;;4996479;28;20189;-85
2022/01/09 11:12:01;;;;;;;29.02;26.48;;;;;;;;;;4996566;28;20275;-85
2022/01/09 11:14:34;;;;;;;25.95;24.25;;;;;;;;;;4996346;28;20313;-84
2022/01/09 11:17:04;;;;;;;27.90;25.02;;;;;;;;;;4996366;28;20220;-86
2022/01/09 11:19:32;;;;;;;24.63;22.92;;;;;;;;;;4979131;28;20215;-85
2022/01/09 11:22:01;;;;;;;24.55;22.17;;;;;;;;;;4996302;28;20208;-90
2022/01/09 11:27:29;;;;;;;26.48;23.92;;;;;;;;;;5042515;27;2616496;-82
2022/01/09 11:30:03;;;;;;;23.35;21.58;;;;;;;;;;5131602;28;20194;-83
2022/01/09 11:32:38;;;;;;;25.42;23.20;;;;;;;;;;5131196;28;20205;-83
2022/01/09 11:35:11;;;;;;;25.15;23.02;;;;;;;;;;5131884;28;20236;-87
2022/01/09 11:37:47;;;;;;;25.20;22.60;;;;;;;;;;5131802;28;20187;-86
2022/01/09 11:40:26;;;;;;;23.50;21.95;;;;;;;;;;5131898;28;20190;-90
2022/01/09 11:43:06;;;;;;;25.15;23.08;;;;;;;;;;5131739;28;20188;-84
2022/01/09 11:45:49;;;;;;;25.88;23.65;;;;;;;;;;5132163;28;20218;-89
2022/01/09 11:48:17;;;;;;;21.50;20.30;;;;;;;;;;5132311;28;20191;-87
2022/01/09 11:51:03;;;;;;;22.77;21.48;;;;;;;;;;5131622;28;20721;-85
2022/01/09 11:53:50;;;;;;;23.70;22.17;;;;;;;;;;5132982;28;20221;-87
2022/01/09 11:56:40;;;;;;;23.88;21.83;;;;;;;;;;5131653;28;20199;-94
2022/01/09 11:59:23;;;;;;;21.70;20.40;;;;;;;;;;5134465;28;20706;-95
2022/01/09 12:01:51;;;;;;;23.02;21.63;;;;;;;;;;5113072;28;20611;-94
2022/01/09 12:04:37;;;;;;;25.27;23.08;;;;;;;;;;5135275;28;20207;-94
2022/01/09 12:09:35;;;;;;;23.63;21.80;;;;;;;;;;5051072;22;20266;-96
2022/01/09 12:20:43;;;;;;;22.00;20.52;;;;;;;;;;5684922;22;20231;-96
2022/01/09 12:23:24;;;;;;;25.30;22.27;;;;;;;;;;5060638;23;20189;-96
2022/01/09 12:25:53;;;;;;;22.45;20.83;;;;;;;;;;5111221;22;20263;-96
2022/01/09 12:28:27;;;;;;;24.58;22.40;;;;;;;;;;5031204;28;20290;-96
2022/01/09 12:33:51;;;;;;;24.05;21.88;;;;;;;;;;5070309;23;20590;-92
2022/01/09 12:36:26;;;;;;;22.92;21.52;;;;;;;;;;5070369;28;20576;-93
2022/01/09 12:38:57;;;;;;;22.40;20.70;;;;;;;;;;5055936;28;20237;-93
2022/01/09 12:41:26;;;;;;;24.85;22.60;;;;;;;;;;5056924;28;20206;-92
2022/01/09 12:44:00;;;;;;;23.40;21.90;;;;;;;;;;5057049;28;20422;-92
2022/01/09 12:46:28;;;;;;;23.20;20.95;;;;;;;;;;5056486;28;20236;-92
2022/01/09 12:48:56;;;;;;;21.65;20.15;;;;;;;;;;5056497;28;20223;-93
2022/01/09 12:51:25;;;;;;;22.27;20.52;;;;;;;;;;5056601;28;20194;-92
2022/01/09 12:53:53;;;;;;;26.55;21.83;;;;;;;;;;5056764;28;20534;-92
2022/01/09 12:56:22;;;;;;;22.15;20.27;;;;;;;;;;5056634;28;20186;-92
2022/01/09 12:58:50;;;;;;;24.48;22.40;;;;;;;;;;5056871;28;20194;-93
2022/01/09 13:01:19;;;;;;;25.05;23.05;;;;;;;;;;5056516;28;20293;-94
2022/01/09 13:03:47;;;;;;;22.63;21.15;;;;;;;;;;5056462;28;20272;-91
2022/01/09 13:06:15;;;;;;;24.27;21.60;;;;;;;;;;5056503;28;20246;-92
2022/01/09 13:08:45;;;;;;;23.20;21.45;;;;;;;;;;5056607;28;20207;-92
2022/01/09 13:11:14;;;;;;;21.77;20.42;;;;;;;;;;5056675;28;20197;-90
2022/01/09 13:13:42;;;;;;;21.45;19.95;;;;;;;;;;5056638;28;20187;-90
2022/01/09 13:16:10;;;;;;;23.98;22.05;;;;;;;;;;5038947;28;20263;-95
2022/01/09 13:18:39;;;;;;;23.73;22.08;;;;;;;;;;5039512;28;20632;-92
2022/01/09 13:21:17;;;;;;;22.38;20.35;;;;;;;;;;5039304;28;20261;-86
2022/01/09 13:23:54;;;;;;;24.00;21.73;;;;;;;;;;5056749;28;20191;-91
2022/01/09 13:26:21;;;;;;;23.73;22.00;;;;;;;;;;5038533;28;20221;-88
2022/01/09 13:28:51;;;;;;;22.67;20.77;;;;;;;;;;5056004;28;20216;-88
2022/01/09 13:31:21;;;;;;;23.83;21.65;;;;;;;;;;5055904;28;20190;-89
2022/01/09 13:39:38;;;;;;;20.88;19.50;;;;;;;;;;5016197;28;20238;-90
2022/01/09 13:42:06;;;;;;;24.90;22.52;;;;;;;;;;5015989;28;20232;-90
2022/01/09 13:44:34;;;;;;;24.38;22.45;;;;;;;;;;5016386;28;20211;-90
2022/01/09 13:47:05;;;;;;;21.65;20.02;;;;;;;;;;4998383;28;20689;-90
2022/01/09 13:49:33;;;;;;;23.85;22.05;;;;;;;;;;5015124;28;20203;-90
2022/01/09 13:52:00;;;;;;;22.80;21.15;;;;;;;;;;5015626;28;20195;-90
2022/01/09 13:54:29;;;;;;;23.63;21.60;;;;;;;;;;5015675;28;20203;-89
2022/01/09 13:57:02;;;;;;;22.98;20.92;;;;;;;;;;5015478;28;20263;-91
2022/01/09 13:59:36;;;;;;;22.13;20.65;;;;;;;;;;5015416;28;20207;-90
2022/01/09 14:02:04;;;;;;;23.23;21.10;;;;;;;;;;5015717;28;20277;-90
2022/01/09 14:04:31;;;;;;;22.92;21.05;;;;;;;;;;5015795;28;20233;-90
2022/01/09 14:06:59;;;;;;;22.00;20.10;;;;;;;;;;5015501;28;20817;-90
2022/01/09 14:09:27;;;;;;;23.15;21.50;;;;;;;;;;5015575;28;20195;-90
2022/01/09 14:12:03;;;;;;;21.70;20.10;;;;;;;;;;5015491;28;20708;-90
2022/01/09 14:14:32;;;;;;;24.33;22.02;;;;;;;;;;5015550;28;20283;-90
2022/01/09 14:16:59;;;;;;;23.75;21.92;;;;;;;;;;5015770;28;20616;-90
2022/01/09 14:19:41;;;;;;;23.63;21.58;;;;;;;;;;5015732;28;20192;-90
2022/01/09 14:22:09;;;;;;;22.27;20.88;;;;;;;;;;5015152;28;20206;-90
2022/01/09 14:24:36;;;;;;;24.00;22.13;;;;;;;;;;5015840;28;20531;-89
2022/01/09 14:27:05;;;;;;;22.23;20.50;;;;;;;;;;5014674;28;20287;-89
2022/01/09 14:29:36;;;;;;;22.60;20.50;;;;;;;;;;5014839;28;20229;-90
2022/01/09 14:32:04;;;;;;;23.33;21.45;;;;;;;;;;5014503;28;20193;-90
2022/01/09 14:34:41;;;;;;;21.92;20.25;;;;;;;;;;5050627;28;20661;-90
2022/01/09 14:37:11;;;;;;;22.30;20.65;;;;;;;;;;5054243;28;20625;-90
2022/01/09 14:39:38;;;;;;;24.95;22.73;;;;;;;;;;5054316;28;20204;-90
2022/01/09 14:42:07;;;;;;;29.42;26.58;;;;;;;;;;5054445;28;20217;-89
2022/01/09 14:44:34;;;;;;;25.40;23.15;;;;;;;;;;5054543;28;20203;-90
2022/01/09 14:47:02;;;;;;;23.30;21.35;;;;;;;;;;5054407;28;20285;-90
2022/01/09 14:49:29;;;;;;;25.75;23.50;;;;;;;;;;5054376;28;20633;-91